createdAt,value
2023-04-18T00:02:33.821Z,8.93
2023-04-18T00:31:11.892Z,8.72
2023-04-18T01:00:04.193Z,8.56
2023-04-18T01:28:46.080Z,8.32
2023-04-18T01:57:33.957Z,7.84
2023-04-18T02:26:15.318Z,7.56
2023-04-18T02:55:13.201Z,7.31
2023-04-18T03:24:12.733Z,7.14
2023-04-18T03:52:43.784Z,7.05
2023-04-18T04:21:40.556Z,7.15
2023-04-18T04:50:21.766Z,7.18
2023-04-18T05:19:09.608Z,7.44
2023-04-18T05:47:45.988Z,7.69
2023-04-18T06:16:35.247Z,7.89
2023-04-18T06:45:02.546Z,8.03
2023-04-18T07:13:31.579Z,8.37
2023-04-18T07:42:06.788Z,8.59
2023-04-18T08:10:34.854Z,8.52
2023-04-18T08:39:13.488Z,8.31
2023-04-18T09:07:34.217Z,8.59
2023-04-18T09:36:13.142Z,9.82
2023-04-18T10:04:55.067Z,10.62
2023-04-18T10:33:32.861Z,11.19
2023-04-18T11:01:53.705Z,11.8
2023-04-18T11:30:26.647Z,12.02
2023-04-18T11:59:07.726Z,12.24
2023-04-18T12:27:40.455Z,12.84
2023-04-18T12:56:22.832Z,13.59
2023-04-18T17:13:51.549Z,15.58
2023-04-18T17:42:31.004Z,14.87
2023-04-18T18:11:05.662Z,14.08
2023-04-18T18:39:43.947Z,13.31
2023-04-18T19:08:21.387Z,12.75
2023-04-18T19:36:48.961Z,12.21
2023-04-18T20:05:22.541Z,11.61
2023-04-18T20:33:39.372Z,11.15
2023-04-18T21:02:27.134Z,10.57
2023-04-18T21:30:53.918Z,10.61
2023-04-18T21:59:19.319Z,10.08
2023-04-18T22:28:02.788Z,9.92
2023-04-18T22:56:44.690Z,9.67
2023-04-18T23:25:25.423Z,9.43
